createdAt,value
2019-05-26T00:01:31.601Z,12.73
2019-05-26T00:04:00.271Z,12.93
2019-05-26T00:06:28.974Z,13.43
2019-05-26T00:08:57.630Z,13.10
2019-05-26T00:11:26.307Z,13.75
2019-05-26T00:13:54.983Z,13.43
2019-05-26T00:16:23.639Z,13.88
2019-05-26T00:18:52.326Z,15.32
2019-05-26T00:21:20.983Z,14.90
2019-05-26T00:23:49.648Z,14.75
2019-05-26T00:26:18.307Z,14.93
2019-05-26T00:28:46.993Z,15.80
2019-05-26T00:31:15.648Z,16.60
2019-05-26T00:33:44.312Z,15.98
2019-05-26T00:36:12.999Z,15.23
2019-05-26T00:38:41.669Z,16.42
2019-05-26T00:41:10.415Z,17.07
2019-05-26T00:43:39.136Z,17.77
2019-05-26T00:46:07.908Z,17.62
2019-05-26T00:48:36.572Z,18.80
2019-05-26T00:51:05.393Z,18.98
2019-05-26T00:53:34.117Z,18.77
2019-05-26T00:56:02.839Z,18.82
2019-05-26T00:58:31.653Z,17.85
2019-05-26T01:01:00.878Z,18.92
2019-05-26T01:03:29.729Z,21.48
2019-05-26T01:05:58.534Z,21.15
2019-05-26T01:08:27.208Z,20.10
2019-05-26T01:10:55.878Z,19.80
2019-05-26T01:13:24.534Z,20.52
2019-05-26T01:15:53.287Z,22.52
2019-05-26T01:18:21.991Z,22.95
2019-05-26T01:20:50.647Z,22.32
2019-05-26T01:23:19.328Z,25.00
2019-05-26T01:25:47.986Z,24.27
2019-05-26T01:28:16.647Z,24.87
2019-05-26T01:30:45.695Z,25.52
2019-05-26T01:33:14.419Z,27.22
2019-05-26T01:35:43.427Z,28.60
2019-05-26T01:38:23.693Z,29.77
2019-05-26T01:40:45.079Z,29.90
2019-05-26T01:43:13.866Z,29.72
2019-05-26T01:45:42.605Z,31.42
2019-05-26T01:48:11.551Z,31.02
2019-05-26T01:50:40.300Z,30.65
2019-05-26T01:53:09.055Z,33.02
2019-05-26T01:55:37.734Z,31.35
2019-05-26T01:58:06.837Z,32.23
2019-05-26T02:00:35.577Z,31.45
2019-05-26T02:03:04.590Z,31.35
2019-05-26T02:05:33.408Z,32.28
2019-05-26T02:08:02.058Z,35.25
2019-05-26T02:10:30.805Z,34.80
2019-05-26T02:12:59.465Z,34.58
2019-05-26T02:15:29.586Z,34.13
2019-05-26T02:17:58.313Z,34.38
2019-05-26T02:20:27.414Z,33.70
2019-05-26T02:22:56.074Z,34.15
2019-05-26T02:25:25.278Z,35.25
2019-05-26T02:27:54.022Z,36.48
2019-05-26T02:30:23.621Z,34.92
2019-05-26T02:32:52.332Z,36.00
2019-05-26T02:35:21.357Z,35.93
2019-05-26T02:37:50.023Z,33.70
2019-05-26T02:40:20.596Z,39.42
2019-05-26T02:42:49.439Z,38.75
2019-05-26T02:45:20.491Z,40.57
2019-05-26T02:47:49.320Z,40.88
2019-05-26T02:50:18.717Z,44.13
2019-05-26T02:52:47.511Z,41.40
2019-05-26T02:55:16.739Z,43.30
2019-05-26T02:57:45.463Z,42.73
2019-05-26T03:00:15.877Z,43.40
2019-05-26T03:02:44.994Z,45.12
2019-05-26T03:05:15.664Z,45.60
2019-05-26T03:07:44.554Z,45.20
2019-05-26T03:10:16.358Z,47.30
2019-05-26T03:12:46.893Z,46.85
2019-05-26T03:15:16.776Z,48.73
2019-05-26T03:17:47.456Z,45.10
2019-05-26T03:20:16.367Z,49.87
2019-05-26T03:22:48.434Z,49.50
2019-05-26T03:25:17.204Z,45.97
2019-05-26T03:27:45.955Z,48.75
2019-05-26T03:30:14.739Z,51.48
2019-05-26T03:32:43.408Z,53.15
2019-05-26T03:35:12.385Z,52.70
2019-05-26T03:37:41.136Z,48.95
2019-05-26T03:40:10.833Z,53.78
2019-05-26T03:42:39.510Z,52.65
2019-05-26T03:45:08.597Z,54.18
2019-05-26T03:47:37.494Z,53.15
2019-05-26T03:50:09.227Z,51.60
2019-05-26T03:52:37.943Z,52.65
2019-05-26T03:55:09.381Z,53.85
2019-05-26T03:57:38.091Z,54.75
2019-05-26T04:00:09.619Z,56.28
2019-05-26T04:02:38.414Z,54.63
2019-05-26T04:05:08.040Z,58.58
2019-05-26T04:07:36.712Z,57.95
2019-05-26T04:10:07.142Z,58.13
2019-05-26T04:12:36.076Z,60.12
2019-05-26T04:15:09.185Z,60.33
2019-05-26T04:17:37.859Z,64.27
2019-05-26T04:20:07.351Z,62.53
2019-05-26T04:22:36.019Z,64.30
2019-05-26T04:25:06.589Z,63.17
2019-05-26T04:27:35.241Z,63.15
2019-05-26T04:30:06.959Z,64.85
2019-05-26T04:32:35.617Z,64.25
2019-05-26T04:35:07.090Z,67.36
2019-05-26T04:37:35.779Z,67.58
2019-05-26T04:40:25.984Z,63.92
2019-05-26T04:42:40.142Z,67.92
2019-05-26T04:45:09.082Z,66.42
2019-05-26T04:47:37.747Z,68.65
2019-05-26T04:50:06.636Z,65.83
2019-05-26T04:52:35.326Z,65.35
2019-05-26T04:55:09.276Z,64.87
2019-05-26T04:57:37.997Z,62.95
2019-05-26T05:00:07.902Z,61.25
2019-05-26T05:02:36.692Z,60.25
2019-05-26T05:05:07.378Z,57.53
2019-05-26T05:07:36.050Z,59.93
2019-05-26T05:10:06.426Z,56.60
2019-05-26T05:12:35.198Z,55.58
2019-05-26T05:15:09.094Z,54.63
2019-05-26T05:17:37.750Z,54.27
2019-05-26T05:20:07.653Z,51.75
2019-05-26T05:22:36.327Z,49.77
2019-05-26T05:25:14.710Z,51.95
2019-05-26T05:27:39.440Z,51.35
2019-05-26T05:30:09.139Z,48.65
2019-05-26T05:32:37.883Z,48.45
2019-05-26T05:35:08.783Z,50.35
2019-05-26T05:37:37.538Z,51.48
2019-05-26T05:40:09.753Z,49.27
2019-05-26T05:42:38.575Z,48.08
2019-05-26T05:45:08.338Z,48.55
2019-05-26T05:47:37.097Z,46.35
2019-05-26T05:50:08.850Z,47.13
2019-05-26T05:52:37.612Z,46.05
2019-05-26T05:55:06.820Z,48.42
2019-05-26T05:57:35.476Z,45.05
2019-05-26T06:00:09.360Z,46.10
2019-05-26T06:02:38.164Z,43.75
2019-05-26T06:05:08.243Z,42.38
2019-05-26T06:07:36.921Z,42.78
2019-05-26T06:10:07.924Z,40.67
2019-05-26T06:12:36.684Z,40.92
2019-05-26T06:15:10.214Z,41.28
2019-05-26T06:20:08.482Z,39.30
2019-05-26T06:22:37.165Z,36.77
2019-05-26T06:25:06.666Z,38.98
2019-05-26T06:27:35.337Z,38.92
2019-05-26T06:30:07.811Z,37.90
2019-05-26T06:32:36.478Z,36.77
2019-05-26T06:35:06.277Z,35.90
2019-05-26T06:37:35.056Z,37.80
2019-05-26T06:40:07.508Z,36.45
2019-05-26T06:42:36.637Z,34.63
2019-05-26T06:45:07.097Z,35.55
2019-05-26T06:47:35.750Z,34.73
2019-05-26T06:50:08.753Z,35.24
2019-05-26T06:52:37.429Z,33.58
2019-05-26T06:55:06.467Z,32.40
2019-05-26T06:57:35.158Z,33.10
2019-05-26T07:00:08.662Z,31.97
2019-05-26T07:02:37.391Z,31.87
2019-05-26T07:05:07.422Z,32.23
2019-05-26T07:07:36.134Z,30.23
2019-05-26T07:10:08.204Z,29.18
2019-05-26T07:12:37.385Z,28.60
2019-05-26T07:15:09.427Z,26.95
2019-05-26T07:17:38.108Z,27.85
2019-05-26T07:20:07.537Z,27.90
2019-05-26T07:22:36.203Z,26.00
2019-05-26T07:25:09.036Z,25.60
2019-05-26T07:27:37.860Z,23.25
2019-05-26T07:30:07.996Z,24.75
2019-05-26T07:32:37.252Z,23.62
2019-05-26T07:35:06.921Z,22.42
2019-05-26T07:37:35.689Z,22.37
2019-05-26T07:40:06.081Z,22.14
2019-05-26T07:42:35.205Z,22.05
2019-05-26T07:45:07.441Z,21.50
2019-05-26T07:47:36.262Z,20.60
2019-05-26T07:50:08.530Z,19.92
2019-05-26T07:52:37.331Z,21.27
2019-05-26T07:55:06.625Z,19.48
2019-05-26T07:57:35.530Z,21.82
2019-05-26T08:00:08.343Z,22.24
2019-05-26T08:02:37.023Z,22.10
2019-05-26T08:05:07.139Z,21.82
2019-05-26T08:07:35.860Z,20.00
2019-05-26T08:10:06.930Z,19.18
2019-05-26T08:12:35.611Z,18.55
2019-05-26T08:15:06.692Z,17.42
2019-05-26T08:17:35.478Z,15.88
2019-05-26T08:20:06.891Z,15.50
2019-05-26T08:22:35.567Z,16.82
2019-05-26T08:25:08.099Z,16.34
2019-05-26T08:27:36.904Z,15.90
2019-05-26T08:30:07.218Z,14.43
2019-05-26T08:32:36.017Z,13.90
2019-05-26T08:35:06.908Z,12.33
2019-05-26T08:37:35.587Z,13.68
2019-05-26T08:40:18.405Z,14.08
2019-05-26T08:42:51.348Z,13.72
2019-05-26T08:45:23.142Z,13.88
2019-05-26T08:47:52.215Z,12.55
2019-05-26T08:50:22.123Z,12.37
2019-05-26T08:52:50.784Z,12.53
2019-05-26T08:55:19.689Z,11.00
2019-05-26T08:57:48.863Z,12.45
2019-05-26T09:00:18.090Z,12.30
2019-05-26T09:02:46.842Z,12.98
2019-05-26T09:05:16.120Z,12.80
2019-05-26T09:07:44.884Z,12.43
2019-05-26T09:10:13.806Z,12.35
2019-05-26T09:12:42.477Z,12.25
2019-05-26T09:15:11.262Z,12.10
2019-05-26T09:17:40.006Z,12.58
2019-05-26T09:20:11.552Z,12.85
2019-05-26T09:22:39.982Z,12.40
2019-05-26T09:25:09.003Z,11.22
2019-05-26T09:27:37.693Z,11.88
2019-05-26T09:30:08.220Z,11.57
2019-05-26T09:32:37.305Z,10.55
2019-05-26T09:35:07.415Z,10.60
2019-05-26T09:37:36.086Z,10.28
2019-05-26T09:40:09.386Z,9.70
2019-05-26T09:42:38.134Z,8.70
2019-05-26T09:45:08.255Z,8.95
2019-05-26T09:47:36.938Z,8.18
2019-05-26T09:50:07.594Z,8.05
2019-05-26T09:52:36.811Z,8.33
2019-05-26T09:55:07.217Z,7.83
2019-05-26T09:57:36.155Z,7.22
2019-05-26T10:00:09.541Z,8.38
2019-05-26T10:02:38.332Z,7.25
2019-05-26T10:05:07.648Z,7.85
2019-05-26T10:07:36.320Z,7.42
2019-05-26T10:10:09.008Z,7.67
2019-05-26T10:12:37.853Z,7.07
2019-05-26T10:15:07.367Z,7.15
2019-05-26T10:17:36.111Z,7.35
2019-05-26T10:20:09.756Z,7.00
2019-05-26T10:22:38.421Z,7.00
2019-05-26T10:25:07.836Z,7.00
2019-05-26T10:27:36.655Z,7.15
2019-05-26T10:30:10.528Z,6.90
2019-05-26T10:32:39.215Z,7.37
2019-05-26T10:35:08.117Z,7.60
2019-05-26T10:37:36.780Z,7.30
2019-05-26T10:40:06.989Z,6.97
2019-05-26T10:42:35.664Z,6.37
2019-05-26T10:45:06.906Z,6.30
2019-05-26T10:47:35.598Z,5.92
2019-05-26T10:50:12.377Z,6.36
2019-05-26T10:52:41.124Z,6.67
2019-05-26T10:55:10.195Z,5.70
2019-05-26T10:57:38.944Z,5.75
2019-05-26T11:00:09.258Z,6.58
2019-05-26T11:02:37.974Z,6.47
2019-05-26T11:05:07.401Z,6.28
2019-05-26T11:07:36.247Z,6.60
2019-05-26T11:10:06.875Z,6.95
2019-05-26T11:12:35.933Z,7.95
2019-05-26T11:15:09.538Z,8.83
2019-05-26T11:17:38.363Z,8.18
2019-05-26T11:20:09.149Z,8.73
2019-05-26T11:22:37.802Z,7.97
2019-05-26T11:25:07.026Z,8.08
2019-05-26T11:27:35.677Z,7.45
2019-05-26T11:30:10.119Z,8.04
2019-05-26T11:32:38.886Z,8.25
2019-05-26T11:35:08.600Z,8.18
2019-05-26T11:37:37.352Z,8.20
2019-05-26T11:40:07.212Z,7.42
2019-05-26T11:42:35.926Z,8.43
2019-05-26T11:45:09.220Z,7.52
2019-05-26T11:47:37.958Z,7.90
2019-05-26T11:50:08.525Z,7.75
2019-05-26T11:52:37.221Z,7.92
2019-05-26T11:55:07.265Z,6.60
2019-05-26T11:57:37.205Z,7.60
2019-05-26T12:00:09.755Z,7.37
2019-05-26T12:02:39.141Z,7.80
2019-05-26T12:05:08.149Z,8.43
2019-05-26T12:07:36.883Z,7.45
2019-05-26T12:10:06.810Z,7.40
2019-05-26T12:12:35.708Z,7.95
2019-05-26T12:15:09.143Z,7.12
2019-05-26T12:17:37.946Z,7.00
2019-05-26T12:20:07.254Z,6.87
2019-05-26T12:22:36.136Z,7.50
2019-05-26T12:25:08.635Z,6.72
2019-05-26T12:27:37.432Z,6.80
2019-05-26T12:30:10.042Z,6.17
2019-05-26T12:32:38.786Z,6.43
2019-05-26T12:35:08.398Z,5.08
2019-05-26T12:37:37.215Z,5.78
2019-05-26T12:40:07.778Z,5.58
2019-05-26T12:42:36.437Z,5.53
2019-05-26T12:45:09.615Z,5.25
2019-05-26T12:47:38.349Z,5.87
2019-05-26T12:50:08.572Z,6.47
2019-05-26T12:52:37.671Z,6.22
2019-05-26T12:55:09.488Z,6.67
2019-05-26T12:57:37.715Z,5.45
2019-05-26T13:00:10.801Z,5.90
2019-05-26T13:02:39.529Z,5.85
2019-05-26T13:05:08.634Z,6.60
2019-05-26T13:07:37.459Z,7.08
2019-05-26T13:10:08.279Z,5.67
2019-05-26T13:12:37.016Z,5.72
2019-05-26T13:15:08.599Z,5.53
2019-05-26T13:17:37.312Z,5.85
2019-05-26T13:20:08.144Z,5.62
2019-05-26T13:22:37.059Z,6.12
2019-05-26T13:25:07.899Z,5.12
2019-05-26T13:27:36.560Z,4.50
2019-05-26T13:30:13.711Z,4.40
2019-05-26T13:32:42.371Z,4.72
2019-05-26T13:35:11.673Z,4.77
2019-05-26T13:37:40.420Z,5.60
2019-05-26T13:40:09.511Z,4.35
2019-05-26T13:42:38.252Z,3.90
2019-05-26T13:45:21.903Z,4.22
2019-05-26T13:47:39.781Z,4.47
2019-05-26T13:50:10.323Z,4.55
2019-05-26T13:52:38.984Z,4.22
2019-05-26T13:55:08.597Z,4.25
2019-05-26T13:57:37.328Z,4.03
2019-05-26T14:00:12.113Z,4.00
2019-05-26T14:02:40.854Z,4.40
2019-05-26T14:05:09.964Z,4.40
2019-05-26T14:07:38.685Z,4.97
2019-05-26T14:10:08.151Z,4.75
2019-05-26T14:12:36.969Z,4.58
2019-05-26T14:15:08.001Z,4.50
2019-05-26T14:17:38.565Z,4.60
2019-05-26T14:20:08.311Z,5.20
2019-05-26T14:22:37.055Z,4.50
2019-05-26T14:25:06.966Z,4.53
2019-05-26T14:27:35.647Z,5.25
2019-05-26T14:30:08.357Z,4.02
2019-05-26T14:32:37.124Z,4.58
2019-05-26T14:35:06.853Z,5.30
2019-05-26T14:37:35.507Z,5.20
2019-05-26T14:40:08.601Z,5.02
2019-05-26T14:42:37.315Z,4.80
2019-05-26T14:45:09.080Z,5.55
2019-05-26T14:47:37.843Z,5.83
2019-05-26T14:50:08.782Z,5.05
2019-05-26T14:52:38.528Z,5.87
2019-05-26T14:55:07.456Z,5.08
2019-05-26T14:57:36.185Z,4.80
2019-05-26T15:00:09.300Z,5.10
2019-05-26T15:02:37.978Z,5.80
2019-05-26T15:05:07.329Z,4.55
2019-05-26T15:07:36.364Z,4.75
2019-05-26T15:10:09.095Z,5.40
2019-05-26T15:12:37.741Z,4.97
2019-05-26T15:15:07.086Z,5.53
2019-05-26T15:17:35.786Z,5.75
2019-05-26T15:20:08.337Z,5.97
2019-05-26T15:22:36.992Z,5.90
2019-05-26T15:25:06.745Z,6.55
2019-05-26T15:27:35.754Z,5.50
2019-05-26T15:30:09.055Z,5.67
2019-05-26T15:32:37.668Z,5.60
2019-05-26T15:35:06.993Z,5.45
2019-05-26T15:37:35.595Z,6.10
2019-05-26T15:40:08.507Z,5.90
2019-05-26T15:42:37.233Z,5.58
2019-05-26T15:45:10.206Z,6.12
2019-05-26T15:47:38.809Z,6.60
2019-05-26T15:50:09.146Z,6.62
2019-05-26T15:52:37.768Z,6.03
2019-05-26T15:55:07.314Z,4.53
2019-05-26T15:57:35.907Z,5.40
2019-05-26T16:00:09.363Z,5.04
2019-05-26T16:02:37.973Z,4.33
2019-05-26T16:05:07.010Z,4.97
2019-05-26T16:07:35.698Z,4.72
2019-05-26T16:10:08.102Z,5.21
2019-05-26T16:12:36.795Z,4.70
2019-05-26T16:15:07.327Z,5.03
2019-05-26T16:17:38.689Z,5.70
2019-05-26T16:22:35.191Z,5.92
2019-05-26T16:25:05.037Z,6.10
2019-05-26T16:27:33.642Z,4.87
2019-05-26T16:30:02.327Z,5.53
2019-05-26T16:32:30.944Z,5.05
2019-05-26T16:34:59.535Z,7.15
2019-05-26T16:37:28.151Z,5.67
2019-05-26T16:39:56.848Z,5.25
2019-05-26T16:42:25.516Z,5.55
2019-05-26T16:44:54.124Z,5.10
2019-05-26T16:47:22.759Z,5.28
2019-05-26T16:49:51.368Z,5.08
2019-05-26T16:52:20.124Z,5.53
2019-05-26T16:54:48.747Z,5.10
2019-05-26T16:57:17.333Z,4.65
2019-05-26T16:59:46.005Z,4.22
2019-05-26T17:02:14.670Z,4.72
2019-05-26T17:04:43.259Z,4.83
2019-05-26T17:07:11.841Z,4.62
2019-05-26T17:09:40.450Z,4.47
2019-05-26T17:12:09.066Z,4.65
2019-05-26T17:14:37.668Z,5.80
2019-05-26T17:17:14.661Z,4.55
2019-05-26T17:22:04.846Z,5.25
2019-05-26T17:24:33.458Z,4.70
2019-05-26T17:27:02.219Z,7.40
2019-05-26T17:29:30.831Z,5.25
2019-05-26T17:31:59.567Z,5.95
2019-05-26T17:34:28.159Z,4.80
2019-05-26T17:36:56.759Z,5.05
2019-05-26T17:39:25.375Z,5.00
2019-05-26T17:41:53.968Z,5.92
2019-05-26T17:44:22.644Z,5.03
2019-05-26T17:46:51.256Z,5.40
2019-05-26T17:49:19.855Z,4.90
2019-05-26T17:51:48.468Z,5.50
2019-05-26T17:54:17.061Z,5.22
2019-05-26T17:56:45.802Z,5.47
2019-05-26T17:59:14.426Z,5.35
2019-05-26T18:01:43.003Z,5.40
2019-05-26T18:04:11.614Z,5.28
2019-05-26T18:06:40.229Z,4.85
2019-05-26T18:09:08.896Z,3.80
2019-05-26T18:11:37.484Z,3.87
2019-05-26T18:14:06.169Z,3.75
2019-05-26T18:16:34.907Z,3.52
2019-05-26T18:19:03.578Z,4.15
2019-05-26T18:21:32.169Z,3.85
2019-05-26T18:24:00.764Z,4.20
2019-05-26T18:26:31.056Z,3.80
2019-05-26T18:28:59.650Z,3.80
2019-05-26T18:31:29.315Z,3.22
2019-05-26T18:33:58.654Z,3.17
2019-05-26T18:36:27.257Z,3.92
2019-05-26T18:38:55.842Z,3.52
2019-05-26T18:41:24.441Z,3.52
2019-05-26T18:43:53.146Z,3.35
2019-05-26T18:46:21.747Z,3.45
2019-05-26T18:48:50.341Z,3.70
2019-05-26T18:51:19.093Z,4.12
2019-05-26T18:53:47.716Z,3.50
2019-05-26T18:56:16.315Z,3.87
2019-05-26T18:58:44.901Z,3.47
2019-05-26T19:01:13.611Z,3.55
2019-05-26T19:03:42.271Z,3.47
2019-05-26T19:06:11.066Z,3.40
2019-05-26T19:08:39.659Z,4.10
2019-05-26T19:48:54.468Z,4.35
2019-05-26T19:51:25.107Z,4.72
2019-05-26T19:53:55.667Z,4.83
2019-05-26T19:56:26.153Z,5.58
2019-05-26T19:59:52.986Z,6.03
2019-05-26T20:02:23.494Z,5.67
2019-05-26T20:04:53.997Z,6.12
2019-05-26T20:07:24.525Z,5.53
2019-05-26T20:09:55.010Z,6.87
2019-05-26T20:12:25.530Z,6.25
2019-05-26T20:14:56.089Z,7.35
2019-05-26T20:17:26.601Z,5.70
2019-05-26T20:19:57.098Z,7.05
2019-05-26T20:22:27.610Z,6.42
2019-05-26T20:24:58.126Z,5.80
2019-05-26T20:27:28.641Z,5.90
2019-05-26T20:29:59.135Z,6.17
2019-05-26T20:32:29.641Z,5.83
2019-05-26T20:35:00.129Z,5.47
2019-05-26T20:37:30.640Z,6.30
2019-05-26T20:40:01.124Z,6.10
2019-05-26T20:42:31.640Z,6.47
2019-05-26T20:45:02.140Z,6.05
2019-05-26T20:47:33.709Z,5.30
2019-05-26T20:50:08.247Z,5.70
2019-05-26T20:52:38.788Z,5.85
2019-05-26T20:55:10.624Z,5.20
2019-05-26T20:57:41.133Z,5.03
2019-05-26T21:00:13.514Z,4.80
2019-05-26T21:02:44.669Z,4.85
2019-05-26T21:05:15.495Z,5.03
2019-05-26T21:07:46.012Z,4.80
2019-05-26T21:10:16.858Z,4.42
2019-05-26T21:12:47.361Z,4.72
2019-05-26T21:15:18.001Z,4.00
2019-05-26T21:17:48.493Z,3.58
2019-05-26T21:20:19.214Z,4.67
2019-05-26T21:22:49.725Z,4.33
2019-05-26T21:25:20.230Z,4.20
2019-05-26T21:27:50.758Z,4.50
2019-05-26T21:30:21.262Z,5.07
2019-05-26T21:32:51.766Z,4.87
2019-05-26T21:35:22.270Z,4.83
2019-05-26T21:37:52.769Z,4.35
2019-05-26T21:40:23.274Z,4.67
2019-05-26T21:42:53.769Z,3.90
2019-05-26T21:45:24.255Z,4.28
2019-05-26T21:47:54.774Z,4.17
2019-05-26T21:50:25.349Z,4.37
2019-05-26T21:52:55.859Z,4.70
2019-05-26T21:55:26.606Z,5.12
2019-05-26T21:57:57.120Z,4.47
2019-05-26T22:00:30.185Z,5.90
2019-05-26T22:03:00.949Z,4.28
2019-05-26T22:05:31.456Z,5.85
2019-05-26T22:08:01.962Z,4.87
2019-05-26T22:10:32.456Z,5.10
2019-05-26T22:13:02.946Z,5.97
2019-05-26T22:15:33.538Z,7.75
2019-05-26T22:18:04.265Z,7.22
2019-05-26T22:20:34.765Z,7.25
2019-05-26T22:23:05.256Z,6.45
2019-05-26T22:25:35.817Z,5.90
2019-05-26T22:28:07.401Z,5.47
2019-05-26T22:30:37.893Z,5.53
2019-05-26T22:33:08.398Z,5.42
2019-05-26T22:35:38.884Z,5.60
2019-05-26T22:38:09.393Z,5.12
2019-05-26T22:40:39.901Z,9.03
2019-05-26T22:43:10.505Z,8.00
2019-05-26T22:45:41.088Z,5.42
2019-05-26T22:48:11.566Z,5.55
2019-05-26T22:50:42.081Z,5.55
2019-05-26T22:53:12.572Z,5.40
2019-05-26T22:55:44.063Z,5.95
2019-05-26T22:58:14.565Z,5.58
2019-05-26T23:00:45.047Z,6.17
2019-05-26T23:03:15.552Z,5.65
2019-05-26T23:05:46.061Z,5.72
2019-05-26T23:08:16.540Z,5.55
2019-05-26T23:10:47.084Z,5.60
2019-05-26T23:13:17.581Z,5.92
2019-05-26T23:15:48.076Z,5.30
2019-05-26T23:18:18.643Z,6.45
2019-05-26T23:20:49.141Z,5.65
2019-05-26T23:23:19.637Z,5.37
2019-05-26T23:25:50.121Z,5.70
2019-05-26T23:28:20.617Z,6.17
2019-05-26T23:30:51.086Z,6.47
2019-05-26T23:33:21.594Z,6.50
2019-05-26T23:35:52.074Z,6.10
2019-05-26T23:38:22.573Z,6.70
2019-05-26T23:40:53.081Z,5.33
2019-05-26T23:43:23.562Z,5.30
2019-05-26T23:45:54.119Z,5.90
2019-05-26T23:48:24.637Z,6.78
2019-05-26T23:50:55.134Z,7.08
2019-05-26T23:53:25.615Z,6.67
2019-05-26T23:55:56.110Z,6.92
2019-05-26T23:58:26.657Z,7.67
